Time;durP1;ratioP1;P1;durP2;ratioP2;P2;SDS_P1;SDS_P2;PMS_P1;PMS_P2;Temp;Humidity;BMP_temperature;BMP_pressure;BME280_temperature;BME280_humidity;BME280_pressure;Samples;Min_cycle;Max_cycle;Signal;HPM_P1;HPM_P2
2023/07/16 00:00:52;;;;;;;3.00;2.80;;;21.20;80.50;;;;;;4982600;28;20057;-73
2023/07/16 00:03:18;;;;;;;3.50;3.20;;;21.20;80.50;;;;;;4979839;28;20068;-73
2023/07/16 00:05:44;;;;;;;4.00;3.55;;;21.20;80.50;;;;;;4981295;28;20081;-72
2023/07/16 00:08:10;;;;;;;4.25;3.47;;;21.20;80.60;;;;;;4983070;28;20065;-72
2023/07/16 00:10:37;;;;;;;3.45;3.15;;;21.20;80.50;;;;;;4980698;28;20425;-73
2023/07/16 00:13:05;;;;;;;4.22;3.40;;;21.20;80.40;;;;;;4980979;28;20474;-72
2023/07/16 00:15:32;;;;;;;3.80;3.40;;;21.20;80.40;;;;;;4980799;28;20042;-72
2023/07/16 00:17:58;;;;;;;3.47;3.17;;;21.20;80.50;;;;;;4980379;28;20059;-74
2023/07/16 00:20:23;;;;;;;3.33;3.03;;;21.10;80.40;;;;;;4980743;28;20037;-74
2023/07/16 00:22:50;;;;;;;3.78;3.40;;;21.10;80.40;;;;;;4982647;28;20034;-73
2023/07/16 00:25:16;;;;;;;3.33;3.03;;;21.10;80.60;;;;;;4997575;28;20035;-72
2023/07/16 00:27:42;;;;;;;4.18;3.35;;;21.10;80.60;;;;;;4980732;28;20027;-72
2023/07/16 00:30:08;;;;;;;4.53;3.20;;;21.10;80.50;;;;;;4995286;28;20531;-73
2023/07/16 00:32:35;;;;;;;3.25;3.00;;;21.10;80.60;;;;;;4980394;28;21341;-73
2023/07/16 00:35:01;;;;;;;3.60;3.30;;;21.10;80.60;;;;;;4996366;28;20041;-73
2023/07/16 00:37:28;;;;;;;3.30;3.00;;;21.10;80.60;;;;;;4981966;28;20042;-72
2023/07/16 00:39:53;;;;;;;4.28;3.30;;;21.10;80.80;;;;;;4993809;28;20112;-72
2023/07/16 00:42:19;;;;;;;3.38;3.00;;;21.10;80.80;;;;;;4980875;28;20034;-72
2023/07/16 00:44:45;;;;;;;5.30;3.45;;;21.10;80.80;;;;;;4978596;28;20030;-72
2023/07/16 00:47:12;;;;;;;4.72;3.05;;;21.00;80.90;;;;;;4981854;28;20061;-72
2023/07/16 00:49:38;;;;;;;3.13;2.88;;;21.00;81.00;;;;;;4979541;28;20026;-73
2023/07/16 00:52:07;;;;;;;3.80;3.50;;;21.00;80.90;;;;;;4979675;28;20421;-73
2023/07/16 00:54:34;;;;;;;3.67;3.20;;;21.00;81.00;;;;;;4997363;28;20464;-73
2023/07/16 00:57:00;;;;;;;4.22;3.33;;;21.00;81.00;;;;;;4982905;28;20038;-74
2023/07/16 00:59:26;;;;;;;5.13;3.33;;;21.00;81.10;;;;;;4979816;28;20405;-74
2023/07/16 01:01:52;;;;;;;3.72;3.40;;;21.00;81.00;;;;;;4979587;28;20035;-74
2023/07/16 01:04:18;;;;;;;3.42;3.13;;;21.00;81.10;;;;;;4995899;28;20058;-73
2023/07/16 01:06:50;;;;;;;3.72;3.00;;;21.00;81.00;;;;;;4979519;28;20031;-74
2023/07/16 01:09:18;;;;;;;3.80;3.40;;;21.00;81.10;;;;;;4980575;28;20457;-73
2023/07/16 01:11:46;;;;;;;4.00;3.38;;;21.00;81.00;;;;;;4994331;28;20106;-73
2023/07/16 01:14:15;;;;;;;4.03;3.00;;;21.00;81.10;;;;;;4979425;28;20034;-74
2023/07/16 01:16:42;;;;;;;3.70;3.35;;;21.00;81.00;;;;;;4995780;28;20074;-74
2023/07/16 01:19:08;;;;;;;3.47;3.17;;;21.00;81.10;;;;;;4993962;28;20134;-74
2023/07/16 01:21:36;;;;;;;4.10;3.20;;;21.00;81.00;;;;;;4995371;28;20038;-73
2023/07/16 01:24:30;;;;;;;3.85;3.50;;;21.00;81.10;;;;;;4978788;28;20042;-74
2023/07/16 01:27:29;;;;;;;4.00;3.13;;;21.00;81.00;;;;;;4980176;28;20035;-73
2023/07/16 01:30:02;;;;;;;3.40;3.10;;;21.00;81.10;;;;;;4993858;28;20034;-74
2023/07/16 01:32:31;;;;;;;3.13;2.80;;;21.00;81.20;;;;;;4980938;28;20464;-73
2023/07/16 01:35:03;;;;;;;4.07;2.90;;;20.90;81.20;;;;;;4998164;28;20571;-73
2023/07/16 01:37:29;;;;;;;4.10;3.20;;;20.90;81.30;;;;;;4979176;28;20042;-74
2023/07/16 01:39:55;;;;;;;3.60;3.22;;;20.90;81.30;;;;;;4978898;28;20039;-74
2023/07/16 01:42:21;;;;;;;3.55;3.25;;;20.90;81.40;;;;;;4977527;28;20035;-73
2023/07/16 01:44:47;;;;;;;3.95;3.10;;;20.90;81.50;;;;;;4997105;28;20031;-73
2023/07/16 01:47:34;;;;;;;3.30;3.00;;;20.90;81.50;;;;;;4979510;28;20049;-73
2023/07/16 01:50:00;;;;;;;4.53;3.00;;;20.90;81.60;;;;;;4979300;28;20041;-71
2023/07/16 01:52:26;;;;;;;6.88;3.50;;;20.90;81.60;;;;;;4979289;28;20046;-73
2023/07/16 01:54:52;;;;;;;3.33;3.03;;;20.90;81.60;;;;;;4995776;28;20035;-73
2023/07/16 01:57:21;;;;;;;4.05;3.05;;;20.90;81.60;;;;;;4980275;28;20101;-72
2023/07/16 01:59:47;;;;;;;3.75;3.08;;;20.90;81.70;;;;;;4995934;28;20038;-72
2023/07/16 02:02:13;;;;;;;4.60;3.30;;;20.90;81.70;;;;;;4978858;28;20113;-72
2023/07/16 02:04:39;;;;;;;3.00;2.70;;;20.80;81.60;;;;;;4995481;28;20133;-72
2023/07/16 02:07:05;;;;;;;3.58;3.28;;;20.90;81.70;;;;;;4979562;28;20493;-72
2023/07/16 02:09:31;;;;;;;3.30;3.00;;;20.80;81.60;;;;;;4999093;28;20146;-72
2023/07/16 02:11:57;;;;;;;4.15;2.80;;;20.90;81.60;;;;;;4982918;28;20049;-72
2023/07/16 02:14:23;;;;;;;3.70;2.83;;;20.90;81.60;;;;;;4999000;28;20490;-72
2023/07/16 02:16:49;;;;;;;4.53;3.20;;;20.90;81.60;;;;;;4982294;28;20473;-72
2023/07/16 02:19:15;;;;;;;3.88;3.28;;;20.80;82.10;;;;;;4984160;28;20145;-72
2023/07/16 02:21:41;;;;;;;3.78;3.00;;;20.90;81.60;;;;;;4982970;28;20039;-72
2023/07/16 02:24:07;;;;;;;3.95;3.30;;;20.80;81.70;;;;;;4982254;28;20491;-72
2023/07/16 02:26:33;;;;;;;3.40;3.10;;;20.80;81.70;;;;;;4985090;28;20031;-73
2023/07/16 02:28:59;;;;;;;3.47;3.17;;;20.80;81.70;;;;;;4982357;28;20039;-72
2023/07/16 02:31:25;;;;;;;3.10;2.90;;;20.80;81.70;;;;;;4982564;28;20034;-74
2023/07/16 02:33:51;;;;;;;3.83;2.80;;;20.80;81.70;;;;;;4981205;28;20876;-73
2023/07/16 02:36:17;;;;;;;5.10;3.00;;;20.90;81.70;;;;;;4998660;28;20097;-72
2023/07/16 02:38:43;;;;;;;4.25;3.05;;;20.90;81.70;;;;;;4998782;28;20035;-73
2023/07/16 02:41:09;;;;;;;3.70;2.92;;;20.90;81.80;;;;;;4983196;28;20034;-73
2023/07/16 02:43:35;;;;;;;3.90;2.92;;;20.90;81.80;;;;;;4982325;28;20038;-73
2023/07/16 02:46:01;;;;;;;4.75;3.05;;;20.90;81.90;;;;;;4981599;28;20413;-73
2023/07/16 02:48:28;;;;;;;3.10;2.80;;;20.90;81.80;;;;;;4982619;28;20042;-73
2023/07/16 02:50:54;;;;;;;2.75;2.50;;;20.90;81.70;;;;;;4999310;28;20062;-73
2023/07/16 02:53:20;;;;;;;3.63;2.83;;;20.90;81.70;;;;;;4982512;28;20410;-73
2023/07/16 02:55:46;;;;;;;3.53;2.83;;;20.90;81.80;;;;;;4997781;28;20408;-73
2023/07/16 02:58:12;;;;;;;7.03;3.35;;;20.90;81.80;;;;;;4980733;28;20034;-73
2023/07/16 03:00:38;;;;;;;3.33;2.95;;;20.90;81.80;;;;;;4984639;28;20038;-72
2023/07/16 03:03:04;;;;;;;5.00;2.92;;;20.90;81.70;;;;;;4980967;28;20044;-73
2023/07/16 03:05:30;;;;;;;3.47;2.70;;;20.90;81.70;;;;;;5000215;28;20034;-73
2023/07/16 03:07:57;;;;;;;3.17;2.78;;;21.00;81.70;;;;;;4982073;28;20034;-73
2023/07/16 03:10:26;;;;;;;2.67;2.47;;;20.90;81.90;;;;;;4983496;28;20070;-74
2023/07/16 03:12:52;;;;;;;3.10;2.80;;;21.00;81.90;;;;;;4982262;28;20046;-73
2023/07/16 03:15:19;;;;;;;4.15;3.00;;;21.00;82.00;;;;;;4983655;28;20469;-73
2023/07/16 03:17:45;;;;;;;3.70;3.20;;;20.90;81.90;;;;;;4980435;28;20050;-73
2023/07/16 03:20:13;;;;;;;3.10;2.80;;;20.90;82.00;;;;;;4998448;28;20046;-73
2023/07/16 03:22:38;;;;;;;3.28;2.97;;;21.00;82.10;;;;;;4979279;28;20088;-73
2023/07/16 03:25:05;;;;;;;3.63;2.75;;;21.00;82.00;;;;;;4981764;28;20034;-73
2023/07/16 03:27:31;;;;;;;6.05;3.10;;;21.00;82.00;;;;;;4981219;28;20430;-73
2023/07/16 03:29:59;;;;;;;3.78;2.65;;;21.00;81.90;;;;;;4980711;28;20038;-73
2023/07/16 03:32:25;;;;;;;3.13;2.90;;;21.00;81.90;;;;;;4981128;28;20335;-73
2023/07/16 03:34:51;;;;;;;4.78;3.22;;;21.00;81.80;;;;;;4979401;28;21467;-73
2023/07/16 03:37:17;;;;;;;3.72;3.00;;;21.00;81.90;;;;;;4982261;28;20037;-73
2023/07/16 03:39:43;;;;;;;3.53;3.10;;;21.00;81.90;;;;;;4997117;28;20053;-73
2023/07/16 03:42:09;;;;;;;3.40;3.10;;;21.10;82.00;;;;;;4979666;28;20042;-73
2023/07/16 03:44:35;;;;;;;3.03;2.83;;;21.10;82.00;;;;;;4997217;28;20057;-73
2023/07/16 03:47:03;;;;;;;3.00;2.80;;;21.10;82.00;;;;;;4997722;28;20461;-73
2023/07/16 03:49:29;;;;;;;3.38;3.10;;;21.10;82.00;;;;;;4981012;28;20042;-73
2023/07/16 03:51:55;;;;;;;3.55;3.25;;;21.10;82.00;;;;;;4982092;28;20034;-73
2023/07/16 03:54:21;;;;;;;3.25;2.95;;;21.10;82.00;;;;;;4980610;28;20061;-73
2023/07/16 03:56:46;;;;;;;4.32;3.08;;;21.10;82.10;;;;;;4981375;28;20704;-73
2023/07/16 03:59:12;;;;;;;3.72;3.42;;;21.10;82.30;;;;;;4981681;28;20137;-73
2023/07/16 04:01:38;;;;;;;3.50;3.20;;;21.10;82.20;;;;;;4980127;28;20030;-72
2023/07/16 04:04:04;;;;;;;3.50;3.20;;;21.10;82.20;;;;;;4978512;28;20553;-73
2023/07/16 04:06:30;;;;;;;4.15;3.22;;;21.10;82.20;;;;;;4997326;28;20762;-73
2023/07/16 04:08:57;;;;;;;3.97;3.20;;;21.10;82.10;;;;;;4978683;28;20030;-73
2023/07/16 04:11:23;;;;;;;3.20;2.90;;;21.20;81.90;;;;;;4983870;28;20027;-72
2023/07/16 04:13:49;;;;;;;3.53;3.22;;;21.20;81.90;;;;;;4980606;28;20038;-72
2023/07/16 04:16:15;;;;;;;3.88;3.20;;;21.20;82.10;;;;;;4981376;28;20039;-73
2023/07/16 04:18:41;;;;;;;3.47;3.17;;;21.20;82.10;;;;;;4980287;28;20559;-72
2023/07/16 04:21:06;;;;;;;3.22;3.03;;;21.20;82.10;;;;;;4980707;28;20567;-73
2023/07/16 04:23:32;;;;;;;3.40;3.10;;;21.20;82.10;;;;;;4980571;28;20125;-73
2023/07/16 04:25:58;;;;;;;4.40;3.45;;;21.10;82.30;;;;;;4981429;28;20397;-73
2023/07/16 04:28:24;;;;;;;3.33;3.03;;;21.10;82.30;;;;;;4980205;28;20038;-73
2023/07/16 04:30:50;;;;;;;3.40;3.10;;;21.20;82.10;;;;;;4982353;28;20030;-72
2023/07/16 04:33:16;;;;;;;3.63;3.30;;;21.20;82.10;;;;;;4981722;28;20607;-73
2023/07/16 04:35:42;;;;;;;3.63;3.33;;;21.20;82.00;;;;;;4983149;28;20046;-73
2023/07/16 04:38:08;;;;;;;3.42;3.13;;;21.20;81.90;;;;;;4980990;28;20635;-73
2023/07/16 04:40:34;;;;;;;3.35;3.15;;;21.20;81.90;;;;;;4980447;28;20038;-72
2023/07/16 04:43:00;;;;;;;3.45;3.15;;;21.30;82.00;;;;;;4979991;28;20039;-72
2023/07/16 04:45:25;;;;;;;3.50;3.20;;;21.30;82.40;;;;;;4979303;28;20034;-73
2023/07/16 04:47:51;;;;;;;3.20;2.97;;;21.30;81.70;;;;;;4980226;28;20042;-73
2023/07/16 04:50:17;;;;;;;3.33;3.00;;;21.40;81.60;;;;;;4982673;28;20396;-72
2023/07/16 04:52:43;;;;;;;3.35;3.05;;;21.40;81.60;;;;;;4980510;28;20034;-73
2023/07/16 04:55:09;;;;;;;4.82;3.38;;;21.40;81.60;;;;;;4979324;28;20125;-73
2023/07/16 04:57:35;;;;;;;3.65;2.90;;;21.40;81.60;;;;;;4980294;28;20038;-73
2023/07/16 05:00:02;;;;;;;4.60;3.22;;;21.40;81.50;;;;;;4979160;28;20050;-73
2023/07/16 05:02:28;;;;;;;3.75;3.42;;;21.40;81.70;;;;;;4980624;28;20108;-72
2023/07/16 05:04:54;;;;;;;3.58;3.28;;;21.40;81.70;;;;;;4994769;28;20418;-73
2023/07/16 05:07:20;;;;;;;3.10;2.80;;;21.50;81.60;;;;;;4979545;28;20035;-73
2023/07/16 05:09:46;;;;;;;3.78;3.47;;;21.50;81.60;;;;;;4979512;28;20038;-73
2023/07/16 05:12:12;;;;;;;3.35;3.03;;;21.50;81.60;;;;;;4981570;28;20046;-72
2023/07/16 05:14:46;;;;;;;3.95;3.40;;;21.50;81.50;;;;;;4982397;28;20178;-72
2023/07/16 05:17:12;;;;;;;5.90;3.47;;;21.50;81.60;;;;;;4979187;28;20048;-72
2023/07/16 05:19:38;;;;;;;3.60;3.30;;;21.50;81.60;;;;;;4978629;28;20087;-72
2023/07/16 05:22:05;;;;;;;3.58;3.20;;;21.50;81.50;;;;;;4982679;28;20097;-73
2023/07/16 05:24:31;;;;;;;4.05;3.65;;;21.50;81.40;;;;;;4980174;28;20041;-73
2023/07/16 05:26:57;;;;;;;3.88;3.40;;;21.50;81.40;;;;;;4979015;28;20065;-73
2023/07/16 05:29:23;;;;;;;4.07;3.67;;;21.60;81.50;;;;;;4979899;28;20026;-73
2023/07/16 05:31:49;;;;;;;4.80;3.25;;;21.60;81.60;;;;;;4978903;28;20144;-74
2023/07/16 05:34:16;;;;;;;3.70;3.40;;;21.60;81.40;;;;;;4979098;28;20537;-73
2023/07/16 05:36:44;;;;;;;4.32;3.38;;;21.60;81.40;;;;;;4979726;28;20039;-73
2023/07/16 05:39:12;;;;;;;4.55;3.42;;;21.60;81.40;;;;;;4979404;28;20453;-73
2023/07/16 05:41:40;;;;;;;5.25;3.70;;;21.70;81.50;;;;;;4982885;28;20035;-73
2023/07/16 05:44:06;;;;;;;4.55;3.40;;;21.70;81.20;;;;;;4984205;28;20136;-73
2023/07/16 05:46:33;;;;;;;3.53;3.22;;;21.70;81.20;;;;;;4984635;28;20132;-73
2023/07/16 05:48:59;;;;;;;4.25;3.85;;;21.70;81.40;;;;;;4984029;28;20129;-73
2023/07/16 05:51:25;;;;;;;4.47;3.28;;;21.70;81.20;;;;;;4983577;28;20125;-73
2023/07/16 05:53:51;;;;;;;8.02;3.58;;;21.70;81.30;;;;;;5001329;28;20064;-73
2023/07/16 05:56:17;;;;;;;5.72;3.38;;;21.80;81.30;;;;;;4998005;28;20026;-73
2023/07/16 05:58:43;;;;;;;3.88;3.22;;;21.80;81.30;;;;;;4983352;28;20066;-73
2023/07/16 06:01:09;;;;;;;3.45;3.20;;;21.80;81.10;;;;;;4983632;28;20530;-73
2023/07/16 06:03:35;;;;;;;3.90;3.50;;;21.90;81.00;;;;;;4981451;28;20042;-73
2023/07/16 06:06:01;;;;;;;3.80;3.50;;;21.90;80.90;;;;;;4983468;28;20034;-73
2023/07/16 06:08:27;;;;;;;3.40;3.10;;;21.90;80.90;;;;;;4985582;28;20077;-73
2023/07/16 06:10:53;;;;;;;4.18;3.60;;;22.00;80.80;;;;;;4982521;28;20081;-73
2023/07/16 06:13:18;;;;;;;3.63;3.33;;;22.00;81.50;;;;;;4982420;28;20035;-72
2023/07/16 06:15:46;;;;;;;5.13;3.40;;;22.20;80.90;;;;;;4984193;28;20077;-72
2023/07/16 06:18:12;;;;;;;4.07;3.67;;;22.30;80.80;;;;;;4981872;28;20049;-73
2023/07/16 06:20:38;;;;;;;3.42;3.10;;;22.30;80.50;;;;;;4983436;28;20026;-73
2023/07/16 06:23:04;;;;;;;3.80;3.50;;;22.40;80.40;;;;;;4984811;28;20055;-73
2023/07/16 06:25:30;;;;;;;4.63;3.90;;;22.50;80.10;;;;;;4983079;28;20038;-74
2023/07/16 06:27:56;;;;;;;4.05;3.60;;;22.50;79.80;;;;;;4982532;28;20042;-73
2023/07/16 06:30:22;;;;;;;4.20;3.80;;;22.60;80.10;;;;;;4985293;28;20134;-74
2023/07/16 06:32:48;;;;;;;3.50;3.20;;;22.60;79.90;;;;;;4997707;28;20034;-74
2023/07/16 06:35:14;;;;;;;4.60;3.50;;;22.60;79.70;;;;;;4982030;28;20510;-73
2023/07/16 06:37:40;;;;;;;3.90;3.58;;;22.70;79.80;;;;;;4983884;28;20031;-74
2023/07/16 06:40:07;;;;;;;5.15;3.47;;;22.80;79.70;;;;;;4980897;28;20038;-73
2023/07/16 06:42:32;;;;;;;4.45;3.78;;;22.80;79.60;;;;;;4981769;28;20042;-73
2023/07/16 06:44:58;;;;;;;4.10;3.30;;;22.90;79.40;;;;;;4984281;28;20026;-73
2023/07/16 06:47:24;;;;;;;3.67;3.38;;;23.00;79.40;;;;;;4984270;28;20711;-73
2023/07/16 06:49:50;;;;;;;4.60;3.50;;;23.00;79.00;;;;;;4981781;28;20038;-73
2023/07/16 06:52:21;;;;;;;3.83;3.53;;;23.00;78.70;;;;;;4981962;28;20105;-73
2023/07/16 06:54:47;;;;;;;3.75;3.35;;;23.00;78.80;;;;;;4982266;28;20121;-73
2023/07/16 06:57:13;;;;;;;3.30;3.10;;;23.10;78.40;;;;;;4984182;28;20035;-73
2023/07/16 06:59:38;;;;;;;3.53;3.25;;;23.10;78.20;;;;;;4982661;28;20042;-73
2023/07/16 07:02:06;;;;;;;3.00;2.80;;;23.10;78.10;;;;;;4984319;28;20056;-73
2023/07/16 07:04:32;;;;;;;3.42;3.13;;;23.10;78.00;;;;;;4983077;28;20540;-73
2023/07/16 07:06:57;;;;;;;4.05;3.65;;;23.10;78.00;;;;;;4981946;28;20035;-73
2023/07/16 07:09:23;;;;;;;3.72;3.42;;;23.10;78.10;;;;;;4981805;28;20039;-74
2023/07/16 07:11:49;;;;;;;3.17;2.97;;;23.10;78.00;;;;;;4981712;28;20117;-73
2023/07/16 07:14:15;;;;;;;3.65;3.35;;;23.10;78.00;;;;;;4982034;28;20019;-72
2023/07/16 07:16:41;;;;;;;3.38;3.08;;;23.10;77.90;;;;;;4983054;28;20658;-73
2023/07/16 07:19:08;;;;;;;3.70;3.40;;;23.10;77.80;;;;;;4983235;28;20108;-73
2023/07/16 07:21:34;;;;;;;3.53;3.22;;;23.10;77.80;;;;;;4996227;28;20465;-73
2023/07/16 07:24:00;;;;;;;3.20;2.97;;;23.10;77.80;;;;;;4984742;28;20034;-72
2023/07/16 07:26:26;;;;;;;3.53;3.17;;;23.20;77.70;;;;;;4981570;28;20496;-73
2023/07/16 07:28:52;;;;;;;3.63;3.33;;;23.20;77.40;;;;;;4982360;28;20046;-73
2023/07/16 07:31:18;;;;;;;3.45;3.15;;;23.20;77.30;;;;;;4998320;28;20073;-73
2023/07/16 07:33:44;;;;;;;3.25;2.95;;;23.20;77.20;;;;;;4996295;28;20472;-73
2023/07/16 07:36:09;;;;;;;3.13;2.72;;;23.20;77.20;;;;;;4982515;28;20460;-74
2023/07/16 07:38:35;;;;;;;3.75;3.45;;;23.20;77.10;;;;;;4981600;28;20030;-72
2023/07/16 07:41:02;;;;;;;3.35;3.05;;;23.30;77.30;;;;;;4982549;28;20059;-73
2023/07/16 07:43:27;;;;;;;3.10;2.90;;;23.30;77.20;;;;;;4981581;28;20030;-72
2023/07/16 07:45:53;;;;;;;3.78;3.40;;;23.30;77.20;;;;;;4996379;28;20035;-73
2023/07/16 07:48:21;;;;;;;3.47;3.17;;;23.20;77.00;;;;;;4982133;28;20045;-73
2023/07/16 07:50:47;;;;;;;3.40;3.10;;;23.30;77.10;;;;;;4981307;28;20034;-73
2023/07/16 07:53:14;;;;;;;3.22;3.00;;;23.30;77.10;;;;;;4979445;28;20069;-74
2023/07/16 07:55:41;;;;;;;3.53;3.22;;;23.30;77.20;;;;;;4984106;28;20113;-74
2023/07/16 07:58:08;;;;;;;4.07;3.60;;;23.30;77.50;;;;;;4981921;28;20049;-74
2023/07/16 08:00:34;;;;;;;3.45;3.13;;;23.30;76.30;;;;;;4980337;28;20057;-74
2023/07/16 08:02:59;;;;;;;3.60;3.30;;;23.30;76.30;;;;;;4981619;28;20034;-74
2023/07/16 08:05:25;;;;;;;3.80;3.30;;;23.30;76.60;;;;;;4983506;28;20112;-74
2023/07/16 08:07:52;;;;;;;3.63;3.33;;;23.30;76.50;;;;;;4982489;28;20038;-73
2023/07/16 08:10:18;;;;;;;3.80;3.50;;;23.30;76.60;;;;;;4981571;28;20035;-73
2023/07/16 08:12:44;;;;;;;3.13;2.80;;;23.30;76.60;;;;;;4983678;28;20062;-73
2023/07/16 08:15:14;;;;;;;3.60;3.00;;;23.30;76.60;;;;;;4980786;28;20069;-73
2023/07/16 08:17:44;;;;;;;3.38;3.08;;;23.40;76.70;;;;;;4996203;28;20053;-73
2023/07/16 08:20:11;;;;;;;3.40;3.10;;;23.40;76.60;;;;;;4980315;28;20081;-72
2023/07/16 08:22:38;;;;;;;5.25;3.08;;;23.40;76.70;;;;;;4981681;28;20132;-73
2023/07/16 08:25:05;;;;;;;4.30;3.28;;;23.50;76.70;;;;;;4981058;28;20097;-74
2023/07/16 08:27:31;;;;;;;3.55;3.17;;;23.50;76.60;;;;;;4981028;28;20033;-73
2023/07/16 08:29:57;;;;;;;2.92;2.67;;;23.50;76.60;;;;;;4994717;28;20036;-72
2023/07/16 08:32:23;;;;;;;3.50;3.20;;;23.60;76.60;;;;;;4981871;28;20030;-73
2023/07/16 08:34:49;;;;;;;3.53;3.22;;;23.60;76.40;;;;;;4980741;28;20027;-74
2023/07/16 08:37:15;;;;;;;3.20;2.92;;;23.60;76.50;;;;;;4981206;28;20038;-74
2023/07/16 08:39:41;;;;;;;4.22;3.30;;;23.60;76.60;;;;;;4995881;28;20466;-73
2023/07/16 08:42:10;;;;;;;3.50;3.17;;;23.60;76.30;;;;;;4980320;28;20034;-74
2023/07/16 08:44:38;;;;;;;3.10;2.80;;;23.60;76.20;;;;;;4981068;28;20026;-73
2023/07/16 08:47:06;;;;;;;3.97;3.50;;;23.70;76.30;;;;;;4980781;28;20038;-73
2023/07/16 08:49:34;;;;;;;3.30;3.10;;;23.60;76.30;;;;;;4979637;28;20038;-74
2023/07/16 08:52:02;;;;;;;3.25;2.95;;;23.60;76.30;;;;;;4980235;28;20031;-74
2023/07/16 08:54:28;;;;;;;3.53;3.22;;;23.70;76.40;;;;;;4979756;28;20371;-73
2023/07/16 08:56:55;;;;;;;3.35;2.65;;;23.60;76.40;;;;;;4978908;28;20030;-74
2023/07/16 08:59:22;;;;;;;5.53;3.03;;;23.60;76.40;;;;;;4981198;28;20080;-74
2023/07/16 09:01:48;;;;;;;3.60;3.30;;;23.70;76.40;;;;;;4995625;28;20401;-73
2023/07/16 09:04:16;;;;;;;2.85;2.65;;;23.70;75.80;;;;;;4979435;28;20034;-74
2023/07/16 09:06:42;;;;;;;3.20;2.95;;;23.70;76.10;;;;;;4980240;28;20039;-74
2023/07/16 09:09:13;;;;;;;3.20;2.90;;;23.70;76.30;;;;;;4978514;28;20031;-74
2023/07/16 09:11:47;;;;;;;3.33;3.03;;;23.80;76.20;;;;;;4980228;28;20034;-73
2023/07/16 09:14:19;;;;;;;3.03;2.83;;;23.80;76.10;;;;;;4981247;28;20042;-73
2023/07/16 09:16:52;;;;;;;3.78;2.83;;;23.80;76.10;;;;;;4982715;28;20031;-74
2023/07/16 09:19:18;;;;;;;3.03;2.83;;;23.80;76.00;;;;;;4978744;28;20398;-73
2023/07/16 09:21:51;;;;;;;3.28;3.00;;;23.80;75.90;;;;;;4994553;28;20039;-73
2023/07/16 09:24:18;;;;;;;3.53;3.13;;;23.80;75.80;;;;;;4979653;28;20142;-73
2023/07/16 09:26:58;;;;;;;5.30;3.00;;;23.80;75.50;;;;;;4977874;28;20034;-73
2023/07/16 09:29:28;;;;;;;3.67;3.38;;;23.90;75.80;;;;;;4979872;28;20105;-74
2023/07/16 09:32:04;;;;;;;4.00;3.17;;;23.80;75.10;;;;;;4978218;28;20033;-74
2023/07/16 09:34:31;;;;;;;3.50;3.20;;;23.80;75.30;;;;;;4980276;28;20034;-73
2023/07/16 09:36:59;;;;;;;4.63;2.90;;;23.80;75.60;;;;;;4977957;28;20047;-73
2023/07/16 09:39:26;;;;;;;3.08;2.78;;;23.80;75.80;;;;;;4979115;28;20084;-73
2023/07/16 09:41:53;;;;;;;3.55;2.80;;;23.80;75.80;;;;;;4979698;28;20064;-73
2023/07/16 09:44:19;;;;;;;2.97;2.78;;;23.90;75.70;;;;;;4981013;28;20026;-74
2023/07/16 09:46:46;;;;;;;2.67;2.50;;;23.80;75.30;;;;;;4980828;28;20867;-71
2023/07/16 09:49:14;;;;;;;3.28;2.97;;;23.90;75.40;;;;;;4979211;28;20038;-73
2023/07/16 09:51:40;;;;;;;2.90;2.70;;;23.80;75.40;;;;;;4980200;28;20069;-73
2023/07/16 09:54:06;;;;;;;3.40;2.80;;;23.90;75.20;;;;;;4979145;28;20112;-73
2023/07/16 09:56:45;;;;;;;5.40;3.50;;;23.90;75.00;;;;;;4981224;28;20129;-73
2023/07/16 09:59:16;;;;;;;3.20;3.00;;;23.90;74.60;;;;;;4979592;28;20046;-73
2023/07/16 10:01:42;;;;;;;3.22;2.92;;;23.90;74.60;;;;;;4979785;28;20047;-73
2023/07/16 10:04:16;;;;;;;2.80;2.58;;;23.90;74.80;;;;;;4978133;28;20034;-73
2023/07/16 10:07:01;;;;;;;4.30;2.70;;;23.90;74.50;;;;;;4980135;28;20583;-74
2023/07/16 10:09:33;;;;;;;3.30;3.00;;;23.90;74.70;;;;;;4980349;28;20125;-74
2023/07/16 10:12:17;;;;;;;3.08;2.55;;;24.00;74.70;;;;;;4978819;28;20046;-73
2023/07/16 10:14:58;;;;;;;3.00;2.80;;;24.00;74.90;;;;;;4994354;28;20402;-73
2023/07/16 10:17:25;;;;;;;2.78;2.58;;;24.00;75.00;;;;;;4981035;28;20034;-73
2023/07/16 10:19:58;;;;;;;3.83;2.83;;;24.00;74.90;;;;;;4979191;28;20031;-73
2023/07/16 10:22:34;;;;;;;3.10;2.90;;;24.00;74.80;;;;;;4981079;28;20584;-73
2023/07/16 10:25:00;;;;;;;3.30;3.00;;;24.00;74.90;;;;;;4980195;28;20046;-73
2023/07/16 10:27:28;;;;;;;2.88;2.60;;;24.00;74.60;;;;;;4979070;28;20133;-73
2023/07/16 10:29:54;;;;;;;2.55;2.42;;;24.00;74.30;;;;;;4982644;28;20034;-73
2023/07/16 10:32:21;;;;;;;3.03;2.83;;;24.00;73.80;;;;;;4983482;28;20138;-74
2023/07/16 10:34:47;;;;;;;2.72;2.63;;;24.00;72.70;;;;;;4981598;28;20062;-73
2023/07/16 10:37:13;;;;;;;2.95;2.72;;;24.00;71.40;;;;;;4982953;28;20821;-73
2023/07/16 10:39:50;;;;;;;3.22;2.92;;;24.00;72.50;;;;;;4982095;28;20077;-74
2023/07/16 10:42:17;;;;;;;3.20;3.00;;;24.00;73.20;;;;;;4982024;28;20084;-73
2023/07/16 10:44:43;;;;;;;3.05;2.83;;;24.00;72.90;;;;;;4982251;28;20034;-73
2023/07/16 10:47:22;;;;;;;3.40;3.10;;;24.00;72.30;;;;;;4983384;28;20486;-73
2023/07/16 10:49:48;;;;;;;2.95;2.75;;;24.00;72.30;;;;;;4981727;28;20046;-73
2023/07/16 10:52:14;;;;;;;3.55;3.17;;;24.00;72.20;;;;;;4982601;28;20066;-73
2023/07/16 10:54:41;;;;;;;3.30;3.10;;;24.00;72.40;;;;;;4998438;28;20596;-73
2023/07/16 10:57:07;;;;;;;3.47;3.17;;;24.00;71.90;;;;;;4983821;28;20049;-73
2023/07/16 10:59:33;;;;;;;3.70;3.33;;;23.90;71.10;;;;;;4982075;28;20045;-73
2023/07/16 11:01:58;;;;;;;5.70;3.55;;;23.90;71.30;;;;;;4982521;28;20034;-74
2023/07/16 11:04:24;;;;;;;4.13;3.50;;;23.90;71.40;;;;;;4981644;28;20130;-72
2023/07/16 11:06:51;;;;;;;3.83;3.53;;;23.90;71.70;;;;;;4981558;28;20030;-73
2023/07/16 11:09:18;;;;;;;3.45;3.15;;;23.90;72.30;;;;;;4983447;28;20040;-73
2023/07/16 11:11:43;;;;;;;3.92;3.53;;;23.90;72.00;;;;;;4984260;28;20062;-72
2023/07/16 11:14:09;;;;;;;5.28;3.45;;;24.00;72.50;;;;;;4983687;28;20057;-74
2023/07/16 11:16:36;;;;;;;4.15;3.80;;;24.00;71.80;;;;;;4982896;28;20117;-72
2023/07/16 11:19:06;;;;;;;3.88;3.42;;;24.00;70.70;;;;;;4981893;28;20375;-73
2023/07/16 11:21:37;;;;;;;3.45;3.17;;;23.90;69.70;;;;;;4983080;28;20046;-73
2023/07/16 11:24:35;;;;;;;4.63;3.50;;;23.90;69.50;;;;;;4982285;28;20039;-73
2023/07/16 11:27:01;;;;;;;3.80;3.50;;;23.90;69.30;;;;;;4982934;28;20026;-72
2023/07/16 11:29:36;;;;;;;3.15;2.95;;;23.80;68.90;;;;;;4982327;28;20512;-73
2023/07/16 11:32:02;;;;;;;3.40;3.10;;;23.90;68.80;;;;;;4982984;28;20038;-72
2023/07/16 11:34:28;;;;;;;3.58;3.28;;;23.90;70.10;;;;;;4983749;28;20038;-72
2023/07/16 11:36:54;;;;;;;3.45;3.15;;;23.90;71.30;;;;;;4997632;28;20476;-73
2023/07/16 11:39:20;;;;;;;3.10;2.90;;;24.00;72.10;;;;;;4982221;28;20030;-73
2023/07/16 11:41:58;;;;;;;3.22;3.03;;;24.00;72.10;;;;;;4997374;28;20716;-72
2023/07/16 11:44:24;;;;;;;3.38;3.17;;;24.00;71.90;;;;;;4981043;28;20039;-73
2023/07/16 11:46:50;;;;;;;3.33;2.90;;;23.90;68.60;;;;;;4981454;28;20042;-73
2023/07/16 11:49:16;;;;;;;3.17;2.97;;;23.90;70.40;;;;;;4980380;28;20039;-73
2023/07/16 11:51:43;;;;;;;2.80;2.65;;;24.00;71.60;;;;;;4982247;28;20138;-73
2023/07/16 11:54:10;;;;;;;3.72;2.90;;;24.00;72.00;;;;;;4979277;28;20038;-73
2023/07/16 11:56:36;;;;;;;4.13;3.00;;;24.00;72.20;;;;;;4982781;28;20118;-73
2023/07/16 11:59:02;;;;;;;3.40;3.10;;;24.00;70.00;;;;;;4980096;28;20071;-73
2023/07/16 12:01:28;;;;;;;3.20;3.00;;;24.00;68.60;;;;;;4980893;28;20068;-73
2023/07/16 12:03:54;;;;;;;4.45;3.00;;;24.00;69.40;;;;;;4981822;28;20042;-73
2023/07/16 12:06:20;;;;;;;3.22;3.03;;;24.00;68.50;;;;;;4981951;28;20034;-73
2023/07/16 12:08:45;;;;;;;3.38;3.10;;;24.00;70.70;;;;;;4980730;28;20098;-73
2023/07/16 12:11:11;;;;;;;3.20;2.90;;;24.10;71.40;;;;;;4985384;28;20030;-73
2023/07/16 12:13:37;;;;;;;3.00;2.80;;;24.10;71.50;;;;;;4978803;28;20057;-73
2023/07/16 12:16:04;;;;;;;3.25;2.97;;;24.10;71.90;;;;;;4995402;28;20030;-73
2023/07/16 12:18:30;;;;;;;3.28;2.97;;;24.10;71.80;;;;;;4981332;28;20034;-72
2023/07/16 12:20:56;;;;;;;2.72;2.53;;;24.10;72.10;;;;;;4980118;28;20066;-73
2023/07/16 12:23:23;;;;;;;3.10;2.90;;;24.00;72.00;;;;;;4983079;28;20070;-73
2023/07/16 12:25:50;;;;;;;3.03;2.83;;;24.10;71.90;;;;;;4980205;28;20039;-73
2023/07/16 12:28:15;;;;;;;2.72;2.53;;;24.10;72.20;;;;;;4980075;28;20041;-74
2023/07/16 12:30:42;;;;;;;3.08;2.85;;;24.00;72.10;;;;;;4980410;28;20047;-73
2023/07/16 12:33:08;;;;;;;3.30;3.10;;;24.10;72.10;;;;;;4979999;28;20038;-73
2023/07/16 12:35:33;;;;;;;2.85;2.65;;;24.00;72.10;;;;;;4985448;28;21584;-73
2023/07/16 12:38:00;;;;;;;3.30;3.00;;;24.00;72.10;;;;;;4979159;28;20051;-73
2023/07/16 12:40:29;;;;;;;2.80;2.60;;;24.00;72.10;;;;;;4979390;28;20049;-73
2023/07/16 12:42:55;;;;;;;3.28;2.78;;;24.00;71.90;;;;;;4981807;28;20136;-73
2023/07/16 12:45:21;;;;;;;3.15;2.85;;;24.00;72.10;;;;;;4980008;28;20053;-73
2023/07/16 12:47:46;;;;;;;3.05;2.85;;;24.00;72.10;;;;;;4979164;28;20080;-73